sensor_id;sensor_type;location;lat;lon;timestamp;P1;durP1;ratioP1;P2;durP2;ratioP2
73670;SDS011;61968;48.178;11.566;2023-09-12T00:00:56;10.45;;;7.93;;
73670;SDS011;61968;48.178;11.566;2023-09-12T00:03:22;9.13;;;8.27;;
73670;SDS011;61968;48.178;11.566;2023-09-12T00:05:52;8.20;;;7.43;;
73670;SDS011;61968;48.178;11.566;2023-09-12T00:08:19;11.63;;;8.32;;
73670;SDS011;61968;48.178;11.566;2023-09-12T00:10:46;9.60;;;8.13;;
73670;SDS011;61968;48.178;11.566;2023-09-12T00:13:12;12.77;;;8.77;;
73670;SDS011;61968;48.178;11.566;2023-09-12T00:15:40;9.32;;;7.65;;
73670;SDS011;61968;48.178;11.566;2023-09-12T00:18:07;10.18;;;8.60;;
73670;SDS011;61968;48.178;11.566;2023-09-12T00:20:33;10.18;;;8.75;;
73670;SDS011;61968;48.178;11.566;2023-09-12T00:23:00;10.18;;;8.18;;
73670;SDS011;61968;48.178;11.566;2023-09-12T00:25:26;14.90;;;8.52;;
73670;SDS011;61968;48.178;11.566;2023-09-12T00:27:53;11.60;;;8.02;;
73670;SDS011;61968;48.178;11.566;2023-09-12T00:30:19;16.17;;;8.57;;
73670;SDS011;61968;48.178;11.566;2023-09-12T00:32:47;14.27;;;8.63;;
73670;SDS011;61968;48.178;11.566;2023-09-12T00:35:13;11.70;;;8.63;;
73670;SDS011;61968;48.178;11.566;2023-09-12T00:37:40;9.27;;;8.02;;
73670;SDS011;61968;48.178;11.566;2023-09-12T00:40:07;11.18;;;8.18;;
73670;SDS011;61968;48.178;11.566;2023-09-12T00:42:33;12.02;;;8.40;;
73670;SDS011;61968;48.178;11.566;2023-09-12T00:45:00;11.80;;;8.45;;
73670;SDS011;61968;48.178;11.566;2023-09-12T00:47:27;11.27;;;9.35;;
73670;SDS011;61968;48.178;11.566;2023-09-12T00:49:56;9.90;;;8.55;;
73670;SDS011;61968;48.178;11.566;2023-09-12T00:52:25;9.68;;;8.70;;
73670;SDS011;61968;48.178;11.566;2023-09-12T00:54:53;9.48;;;8.32;;
73670;SDS011;61968;48.178;11.566;2023-09-12T00:57:20;11.15;;;9.20;;
73670;SDS011;61968;48.178;11.566;2023-09-12T00:59:47;10.70;;;8.70;;
73670;SDS011;61968;48.178;11.566;2023-09-12T01:02:14;11.25;;;8.35;;
73670;SDS011;61968;48.178;11.566;2023-09-12T01:04:41;10.57;;;8.70;;
73670;SDS011;61968;48.178;11.566;2023-09-12T01:07:10;11.32;;;8.80;;
73670;SDS011;61968;48.178;11.566;2023-09-12T01:09:36;11.18;;;9.27;;
73670;SDS011;61968;48.178;11.566;2023-09-12T01:12:03;12.73;;;8.55;;
73670;SDS011;61968;48.178;11.566;2023-09-12T01:14:30;15.35;;;9.75;;
73670;SDS011;61968;48.178;11.566;2023-09-12T01:16:57;9.35;;;8.35;;
73670;SDS011;61968;48.178;11.566;2023-09-12T01:19:24;11.48;;;9.07;;
73670;SDS011;61968;48.178;11.566;2023-09-12T01:27:44;10.98;;;8.15;;
73670;SDS011;61968;48.178;11.566;2023-09-12T01:30:13;13.95;;;8.40;;
73670;SDS011;61968;48.178;11.566;2023-09-12T01:32:43;10.73;;;8.23;;
73670;SDS011;61968;48.178;11.566;2023-09-12T01:35:10;9.80;;;8.50;;
73670;SDS011;61968;48.178;11.566;2023-09-12T01:37:37;10.40;;;8.35;;
73670;SDS011;61968;48.178;11.566;2023-09-12T01:40:04;10.27;;;7.82;;
73670;SDS011;61968;48.178;11.566;2023-09-12T01:42:34;9.43;;;7.63;;
73670;SDS011;61968;48.178;11.566;2023-09-12T01:45:04;9.80;;;8.75;;
73670;SDS011;61968;48.178;11.566;2023-09-12T01:47:33;11.93;;;8.23;;
73670;SDS011;61968;48.178;11.566;2023-09-12T01:50:01;10.95;;;9.07;;
73670;SDS011;61968;48.178;11.566;2023-09-12T01:52:29;13.02;;;11.18;;
73670;SDS011;61968;48.178;11.566;2023-09-12T01:54:56;13.95;;;9.90;;
73670;SDS011;61968;48.178;11.566;2023-09-12T01:57:22;13.75;;;10.38;;
73670;SDS011;61968;48.178;11.566;2023-09-12T01:59:49;13.60;;;10.02;;
73670;SDS011;61968;48.178;11.566;2023-09-12T02:02:17;11.13;;;9.25;;
73670;SDS011;61968;48.178;11.566;2023-09-12T02:04:45;12.02;;;10.77;;
73670;SDS011;61968;48.178;11.566;2023-09-12T02:07:17;12.77;;;10.07;;
73670;SDS011;61968;48.178;11.566;2023-09-12T02:09:43;11.63;;;9.05;;
73670;SDS011;61968;48.178;11.566;2023-09-12T02:12:10;12.50;;;8.98;;
73670;SDS011;61968;48.178;11.566;2023-09-12T02:14:36;12.07;;;9.07;;
73670;SDS011;61968;48.178;11.566;2023-09-12T02:17:03;10.73;;;9.63;;
73670;SDS011;61968;48.178;11.566;2023-09-12T02:19:31;14.07;;;10.55;;
73670;SDS011;61968;48.178;11.566;2023-09-12T02:21:57;12.15;;;9.60;;
73670;SDS011;61968;48.178;11.566;2023-09-12T02:24:24;10.13;;;8.80;;
73670;SDS011;61968;48.178;11.566;2023-09-12T02:26:50;9.50;;;8.60;;
73670;SDS011;61968;48.178;11.566;2023-09-12T02:29:17;16.98;;;9.45;;
73670;SDS011;61968;48.178;11.566;2023-09-12T02:31:43;10.98;;;8.85;;
73670;SDS011;61968;48.178;11.566;2023-09-12T02:34:10;10.18;;;8.75;;
73670;SDS011;61968;48.178;11.566;2023-09-12T02:36:38;11.70;;;8.98;;
73670;SDS011;61968;48.178;11.566;2023-09-12T02:39:04;11.55;;;9.07;;
73670;SDS011;61968;48.178;11.566;2023-09-12T02:41:31;16.73;;;9.65;;
73670;SDS011;61968;48.178;11.566;2023-09-12T02:43:57;10.27;;;8.65;;
73670;SDS011;61968;48.178;11.566;2023-09-12T02:46:24;12.93;;;8.95;;
73670;SDS011;61968;48.178;11.566;2023-09-12T02:48:50;10.55;;;8.77;;
73670;SDS011;61968;48.178;11.566;2023-09-12T02:51:17;15.45;;;9.20;;
73670;SDS011;61968;48.178;11.566;2023-09-12T02:53:45;9.68;;;8.65;;
73670;SDS011;61968;48.178;11.566;2023-09-12T02:56:11;10.57;;;9.45;;
73670;SDS011;61968;48.178;11.566;2023-09-12T02:58:38;13.90;;;9.65;;
73670;SDS011;61968;48.178;11.566;2023-09-12T03:01:05;10.15;;;8.20;;
73670;SDS011;61968;48.178;11.566;2023-09-12T03:03:31;12.63;;;8.20;;
73670;SDS011;61968;48.178;11.566;2023-09-12T03:05:58;9.80;;;7.80;;
73670;SDS011;61968;48.178;11.566;2023-09-12T03:08:25;12.25;;;8.82;;
73670;SDS011;61968;48.178;11.566;2023-09-12T03:10:54;9.82;;;8.35;;
73670;SDS011;61968;48.178;11.566;2023-09-12T03:13:22;9.73;;;7.72;;
73670;SDS011;61968;48.178;11.566;2023-09-12T03:15:49;8.88;;;7.35;;
73670;SDS011;61968;48.178;11.566;2023-09-12T03:18:16;9.95;;;8.07;;
73670;SDS011;61968;48.178;11.566;2023-09-12T03:20:42;10.55;;;8.35;;
73670;SDS011;61968;48.178;11.566;2023-09-12T03:23:09;9.63;;;7.70;;
73670;SDS011;61968;48.178;11.566;2023-09-12T03:25:35;8.10;;;7.28;;
73670;SDS011;61968;48.178;11.566;2023-09-12T03:28:04;11.25;;;8.43;;
73670;SDS011;61968;48.178;11.566;2023-09-12T03:30:32;11.85;;;8.00;;
73670;SDS011;61968;48.178;11.566;2023-09-12T03:32:59;11.65;;;8.52;;
73670;SDS011;61968;48.178;11.566;2023-09-12T03:35:26;8.63;;;7.32;;
73670;SDS011;61968;48.178;11.566;2023-09-12T03:37:53;8.55;;;7.63;;
73670;SDS011;61968;48.178;11.566;2023-09-12T03:40:19;10.32;;;8.25;;
73670;SDS011;61968;48.178;11.566;2023-09-12T03:42:46;9.75;;;7.30;;
73670;SDS011;61968;48.178;11.566;2023-09-12T03:45:14;10.23;;;7.72;;
73670;SDS011;61968;48.178;11.566;2023-09-12T03:47:40;8.95;;;8.10;;
73670;SDS011;61968;48.178;11.566;2023-09-12T03:50:07;8.38;;;7.47;;
73670;SDS011;61968;48.178;11.566;2023-09-12T03:52:34;10.10;;;7.40;;
73670;SDS011;61968;48.178;11.566;2023-09-12T03:55:00;14.30;;;7.72;;
73670;SDS011;61968;48.178;11.566;2023-09-12T03:57:27;7.93;;;7.15;;
73670;SDS011;61968;48.178;11.566;2023-09-12T03:59:54;8.73;;;7.30;;
73670;SDS011;61968;48.178;11.566;2023-09-12T04:02:22;8.68;;;7.72;;
73670;SDS011;61968;48.178;11.566;2023-09-12T04:04:48;9.85;;;8.20;;
73670;SDS011;61968;48.178;11.566;2023-09-12T04:07:15;8.50;;;7.15;;
73670;SDS011;61968;48.178;11.566;2023-09-12T04:09:41;8.38;;;7.00;;
73670;SDS011;61968;48.178;11.566;2023-09-12T04:12:08;10.82;;;7.65;;
73670;SDS011;61968;48.178;11.566;2023-09-12T04:14:34;11.00;;;8.05;;
73670;SDS011;61968;48.178;11.566;2023-09-12T04:17:01;11.00;;;7.25;;
73670;SDS011;61968;48.178;11.566;2023-09-12T04:19:29;23.15;;;13.90;;
73670;SDS011;61968;48.178;11.566;2023-09-12T04:21:56;13.32;;;9.52;;
73670;SDS011;61968;48.178;11.566;2023-09-12T04:24:23;15.93;;;9.68;;
73670;SDS011;61968;48.178;11.566;2023-09-12T04:26:49;15.98;;;9.48;;
73670;SDS011;61968;48.178;11.566;2023-09-12T04:29:16;11.07;;;9.00;;
73670;SDS011;61968;48.178;11.566;2023-09-12T04:31:43;10.65;;;8.30;;
73670;SDS011;61968;48.178;11.566;2023-09-12T04:34:09;22.15;;;8.05;;
73670;SDS011;61968;48.178;11.566;2023-09-12T04:36:37;13.88;;;8.10;;
73670;SDS011;61968;48.178;11.566;2023-09-12T04:39:04;13.73;;;7.63;;
73670;SDS011;61968;48.178;11.566;2023-09-12T04:41:31;12.70;;;7.28;;
73670;SDS011;61968;48.178;11.566;2023-09-12T04:43:57;13.48;;;7.85;;
73670;SDS011;61968;48.178;11.566;2023-09-12T04:46:26;15.63;;;8.65;;
73670;SDS011;61968;48.178;11.566;2023-09-12T04:48:52;15.23;;;7.75;;
73670;SDS011;61968;48.178;11.566;2023-09-12T04:51:19;10.18;;;7.70;;
73670;SDS011;61968;48.178;11.566;2023-09-12T04:53:46;12.95;;;7.63;;
73670;SDS011;61968;48.178;11.566;2023-09-12T04:56:16;10.90;;;7.63;;
73670;SDS011;61968;48.178;11.566;2023-09-12T04:58:43;10.35;;;7.30;;
73670;SDS011;61968;48.178;11.566;2023-09-12T05:01:10;12.48;;;8.07;;
73670;SDS011;61968;48.178;11.566;2023-09-12T05:03:36;11.63;;;7.03;;
73670;SDS011;61968;48.178;11.566;2023-09-12T05:06:03;12.75;;;7.60;;
73670;SDS011;61968;48.178;11.566;2023-09-12T05:08:30;11.50;;;8.02;;
73670;SDS011;61968;48.178;11.566;2023-09-12T05:10:57;9.35;;;6.68;;
73670;SDS011;61968;48.178;11.566;2023-09-12T05:13:24;8.20;;;6.80;;
73670;SDS011;61968;48.178;11.566;2023-09-12T05:15:50;9.85;;;7.13;;
73670;SDS011;61968;48.178;11.566;2023-09-12T05:18:17;7.95;;;7.05;;
73670;SDS011;61968;48.178;11.566;2023-09-12T05:20:43;7.43;;;6.18;;
73670;SDS011;61968;48.178;11.566;2023-09-12T05:23:10;9.07;;;7.30;;
73670;SDS011;61968;48.178;11.566;2023-09-12T05:25:37;11.40;;;7.38;;
73670;SDS011;61968;48.178;11.566;2023-09-12T05:28:05;9.82;;;6.65;;
73670;SDS011;61968;48.178;11.566;2023-09-12T05:30:32;9.45;;;6.97;;
73670;SDS011;61968;48.178;11.566;2023-09-12T05:32:58;14.90;;;6.70;;
73670;SDS011;61968;48.178;11.566;2023-09-12T05:35:25;10.75;;;7.97;;
73670;SDS011;61968;48.178;11.566;2023-09-12T05:37:53;10.00;;;7.20;;
73670;SDS011;61968;48.178;11.566;2023-09-12T05:40:20;10.98;;;7.35;;
73670;SDS011;61968;48.178;11.566;2023-09-12T05:42:46;11.75;;;7.38;;
73670;SDS011;61968;48.178;11.566;2023-09-12T05:45:14;7.95;;;7.15;;
73670;SDS011;61968;48.178;11.566;2023-09-12T05:47:41;7.80;;;6.78;;
73670;SDS011;61968;48.178;11.566;2023-09-12T05:50:08;8.50;;;6.68;;
73670;SDS011;61968;48.178;11.566;2023-09-12T05:52:35;10.30;;;7.28;;
73670;SDS011;61968;48.178;11.566;2023-09-12T05:55:02;16.58;;;8.30;;
73670;SDS011;61968;48.178;11.566;2023-09-12T05:57:29;11.02;;;7.55;;
73670;SDS011;61968;48.178;11.566;2023-09-12T05:59:58;7.95;;;7.15;;
73670;SDS011;61968;48.178;11.566;2023-09-12T06:02:27;11.73;;;7.85;;
73670;SDS011;61968;48.178;11.566;2023-09-12T06:04:54;10.38;;;6.57;;
73670;SDS011;61968;48.178;11.566;2023-09-12T06:07:20;11.82;;;8.30;;
73670;SDS011;61968;48.178;11.566;2023-09-12T06:09:47;13.13;;;8.73;;
73670;SDS011;61968;48.178;11.566;2023-09-12T06:12:13;13.15;;;7.40;;
73670;SDS011;61968;48.178;11.566;2023-09-12T06:14:40;13.35;;;7.63;;
73670;SDS011;61968;48.178;11.566;2023-09-12T06:17:06;11.18;;;7.90;;
73670;SDS011;61968;48.178;11.566;2023-09-12T06:19:34;8.25;;;7.15;;
73670;SDS011;61968;48.178;11.566;2023-09-12T06:22:01;13.10;;;8.25;;
73670;SDS011;61968;48.178;11.566;2023-09-12T06:24:27;8.98;;;6.95;;
73670;SDS011;61968;48.178;11.566;2023-09-12T06:26:54;9.50;;;7.22;;
73670;SDS011;61968;48.178;11.566;2023-09-12T06:29:20;9.75;;;8.10;;
73670;SDS011;61968;48.178;11.566;2023-09-12T06:31:47;12.77;;;7.53;;
73670;SDS011;61968;48.178;11.566;2023-09-12T06:34:13;13.77;;;7.50;;
73670;SDS011;61968;48.178;11.566;2023-09-12T06:36:41;10.05;;;8.20;;
73670;SDS011;61968;48.178;11.566;2023-09-12T06:39:10;13.07;;;7.85;;
73670;SDS011;61968;48.178;11.566;2023-09-12T06:41:36;8.77;;;7.15;;
73670;SDS011;61968;48.178;11.566;2023-09-12T06:44:03;13.88;;;8.27;;
73670;SDS011;61968;48.178;11.566;2023-09-12T06:46:30;16.17;;;8.20;;
73670;SDS011;61968;48.178;11.566;2023-09-12T06:49:00;9.65;;;7.38;;
73670;SDS011;61968;48.178;11.566;2023-09-12T06:51:27;12.95;;;7.85;;
73670;SDS011;61968;48.178;11.566;2023-09-12T06:53:55;13.85;;;8.48;;
73670;SDS011;61968;48.178;11.566;2023-09-12T06:56:21;11.60;;;7.85;;
73670;SDS011;61968;48.178;11.566;2023-09-12T06:58:48;12.48;;;7.30;;
73670;SDS011;61968;48.178;11.566;2023-09-12T07:01:14;7.97;;;7.18;;
73670;SDS011;61968;48.178;11.566;2023-09-12T07:03:41;11.85;;;6.28;;
73670;SDS011;61968;48.178;11.566;2023-09-12T07:06:07;13.60;;;7.90;;
73670;SDS011;61968;48.178;11.566;2023-09-12T07:08:34;14.38;;;7.70;;
73670;SDS011;61968;48.178;11.566;2023-09-12T07:11:03;11.00;;;7.32;;
73670;SDS011;61968;48.178;11.566;2023-09-12T07:13:31;8.60;;;6.95;;
73670;SDS011;61968;48.178;11.566;2023-09-12T07:15:58;9.00;;;7.70;;
73670;SDS011;61968;48.178;11.566;2023-09-12T07:18:27;11.88;;;6.97;;
73670;SDS011;61968;48.178;11.566;2023-09-12T07:20:57;9.30;;;7.13;;
73670;SDS011;61968;48.178;11.566;2023-09-12T07:23:24;12.63;;;7.57;;
73670;SDS011;61968;48.178;11.566;2023-09-12T07:25:50;9.52;;;7.53;;
73670;SDS011;61968;48.178;11.566;2023-09-12T07:28:19;8.30;;;6.88;;
73670;SDS011;61968;48.178;11.566;2023-09-12T07:30:45;10.80;;;7.35;;
73670;SDS011;61968;48.178;11.566;2023-09-12T07:33:12;9.98;;;7.22;;
73670;SDS011;61968;48.178;11.566;2023-09-12T07:35:39;8.35;;;6.28;;
73670;SDS011;61968;48.178;11.566;2023-09-12T07:38:05;9.75;;;6.68;;
73670;SDS011;61968;48.178;11.566;2023-09-12T07:40:32;11.73;;;7.07;;
73670;SDS011;61968;48.178;11.566;2023-09-12T07:42:58;12.38;;;7.15;;
73670;SDS011;61968;48.178;11.566;2023-09-12T07:45:26;7.35;;;6.55;;
73670;SDS011;61968;48.178;11.566;2023-09-12T07:47:54;10.00;;;6.90;;
73670;SDS011;61968;48.178;11.566;2023-09-12T07:50:21;7.70;;;6.75;;
73670;SDS011;61968;48.178;11.566;2023-09-12T07:52:47;13.93;;;8.75;;
73670;SDS011;61968;48.178;11.566;2023-09-12T07:55:14;10.38;;;7.25;;
73670;SDS011;61968;48.178;11.566;2023-09-12T07:57:40;10.60;;;6.15;;
73670;SDS011;61968;48.178;11.566;2023-09-12T08:00:08;8.82;;;6.97;;
73670;SDS011;61968;48.178;11.566;2023-09-12T08:02:37;7.75;;;6.90;;
73670;SDS011;61968;48.178;11.566;2023-09-12T08:05:04;8.27;;;6.95;;
73670;SDS011;61968;48.178;11.566;2023-09-12T08:07:31;7.40;;;5.80;;
73670;SDS011;61968;48.178;11.566;2023-09-12T08:09:57;10.95;;;6.47;;
73670;SDS011;61968;48.178;11.566;2023-09-12T08:12:25;11.90;;;6.93;;
73670;SDS011;61968;48.178;11.566;2023-09-12T08:14:52;10.40;;;6.78;;
73670;SDS011;61968;48.178;11.566;2023-09-12T08:17:19;8.30;;;6.03;;
73670;SDS011;61968;48.178;11.566;2023-09-12T08:19:47;9.25;;;6.80;;
73670;SDS011;61968;48.178;11.566;2023-09-12T08:22:14;8.02;;;6.50;;
73670;SDS011;61968;48.178;11.566;2023-09-12T08:24:40;15.15;;;7.53;;
73670;SDS011;61968;48.178;11.566;2023-09-12T08:27:07;20.63;;;9.85;;
73670;SDS011;61968;48.178;11.566;2023-09-12T08:29:35;13.65;;;8.65;;
73670;SDS011;61968;48.178;11.566;2023-09-12T08:32:02;10.23;;;7.10;;
73670;SDS011;61968;48.178;11.566;2023-09-12T08:34:28;7.63;;;6.85;;
73670;SDS011;61968;48.178;11.566;2023-09-12T08:36:56;8.48;;;6.88;;
73670;SDS011;61968;48.178;11.566;2023-09-12T08:39:23;8.70;;;7.10;;
73670;SDS011;61968;48.178;11.566;2023-09-12T08:41:51;9.30;;;6.10;;
73670;SDS011;61968;48.178;11.566;2023-09-12T08:44:18;11.70;;;6.60;;
73670;SDS011;61968;48.178;11.566;2023-09-12T08:46:46;7.20;;;6.28;;
73670;SDS011;61968;48.178;11.566;2023-09-12T08:49:13;9.23;;;6.65;;
73670;SDS011;61968;48.178;11.566;2023-09-12T08:51:40;7.18;;;6.40;;
73670;SDS011;61968;48.178;11.566;2023-09-12T08:54:08;11.57;;;7.05;;
73670;SDS011;61968;48.178;11.566;2023-09-12T08:56:36;10.50;;;6.97;;
73670;SDS011;61968;48.178;11.566;2023-09-12T08:59:05;13.70;;;6.80;;
73670;SDS011;61968;48.178;11.566;2023-09-12T09:01:32;15.05;;;6.55;;
73670;SDS011;61968;48.178;11.566;2023-09-12T09:04:01;8.55;;;7.07;;
73670;SDS011;61968;48.178;11.566;2023-09-12T09:06:28;9.75;;;6.80;;
73670;SDS011;61968;48.178;11.566;2023-09-12T09:08:57;10.35;;;6.13;;
73670;SDS011;61968;48.178;11.566;2023-09-12T09:11:26;6.60;;;5.85;;
73670;SDS011;61968;48.178;11.566;2023-09-12T09:13:54;7.47;;;6.55;;
73670;SDS011;61968;48.178;11.566;2023-09-12T09:16:21;10.35;;;6.10;;
73670;SDS011;61968;48.178;11.566;2023-09-12T09:18:50;11.02;;;6.97;;
73670;SDS011;61968;48.178;11.566;2023-09-12T09:21:17;11.60;;;7.15;;
73670;SDS011;61968;48.178;11.566;2023-09-12T09:23:44;6.72;;;6.13;;
73670;SDS011;61968;48.178;11.566;2023-09-12T09:26:11;9.15;;;6.47;;
73670;SDS011;61968;48.178;11.566;2023-09-12T09:28:39;7.45;;;6.75;;
73670;SDS011;61968;48.178;11.566;2023-09-12T09:31:09;6.22;;;5.65;;
73670;SDS011;61968;48.178;11.566;2023-09-12T09:33:36;8.80;;;6.55;;
73670;SDS011;61968;48.178;11.566;2023-09-12T09:36:05;8.18;;;5.82;;
73670;SDS011;61968;48.178;11.566;2023-09-12T09:38:34;8.90;;;6.50;;
73670;SDS011;61968;48.178;11.566;2023-09-12T09:41:03;10.30;;;6.25;;
73670;SDS011;61968;48.178;11.566;2023-09-12T09:43:30;7.18;;;6.47;;
73670;SDS011;61968;48.178;11.566;2023-09-12T09:45:59;9.63;;;7.90;;
73670;SDS011;61968;48.178;11.566;2023-09-12T09:48:26;7.32;;;6.57;;
73670;SDS011;61968;48.178;11.566;2023-09-12T09:50:53;8.02;;;6.55;;
73670;SDS011;61968;48.178;11.566;2023-09-12T09:53:25;9.75;;;6.70;;
73670;SDS011;61968;48.178;11.566;2023-09-12T09:55:52;7.40;;;6.65;;
73670;SDS011;61968;48.178;11.566;2023-09-12T09:58:18;7.20;;;6.50;;
73670;SDS011;61968;48.178;11.566;2023-09-12T10:00:49;9.32;;;7.00;;
73670;SDS011;61968;48.178;11.566;2023-09-12T10:03:18;9.35;;;7.20;;
73670;SDS011;61968;48.178;11.566;2023-09-12T10:05:48;7.35;;;6.50;;
73670;SDS011;61968;48.178;11.566;2023-09-12T10:08:17;7.63;;;6.43;;
73670;SDS011;61968;48.178;11.566;2023-09-12T10:10:46;10.43;;;6.97;;
73670;SDS011;61968;48.178;11.566;2023-09-12T10:13:13;8.25;;;6.60;;
73670;SDS011;61968;48.178;11.566;2023-09-12T10:15:42;6.90;;;5.78;;
73670;SDS011;61968;48.178;11.566;2023-09-12T10:18:11;7.28;;;6.57;;
73670;SDS011;61968;48.178;11.566;2023-09-12T10:20:55;11.25;;;6.28;;
73670;SDS011;61968;48.178;11.566;2023-09-12T10:23:30;10.52;;;6.47;;
73670;SDS011;61968;48.178;11.566;2023-09-12T10:26:06;7.10;;;5.72;;
73670;SDS011;61968;48.178;11.566;2023-09-12T10:28:35;6.45;;;5.85;;
73670;SDS011;61968;48.178;11.566;2023-09-12T10:31:02;6.50;;;5.90;;
73670;SDS011;61968;48.178;11.566;2023-09-12T10:33:31;6.82;;;6.13;;
73670;SDS011;61968;48.178;11.566;2023-09-12T10:35:59;7.93;;;5.70;;
73670;SDS011;61968;48.178;11.566;2023-09-12T10:38:26;6.95;;;6.25;;
73670;SDS011;61968;48.178;11.566;2023-09-12T10:40:54;7.05;;;6.35;;
73670;SDS011;61968;48.178;11.566;2023-09-12T10:43:22;8.35;;;6.32;;
73670;SDS011;61968;48.178;11.566;2023-09-12T10:45:51;7.18;;;5.88;;
73670;SDS011;61968;48.178;11.566;2023-09-12T10:48:18;6.38;;;5.78;;
73670;SDS011;61968;48.178;11.566;2023-09-12T10:50:45;8.85;;;5.68;;
73670;SDS011;61968;48.178;11.566;2023-09-12T10:53:15;10.80;;;5.93;;
73670;SDS011;61968;48.178;11.566;2023-09-12T10:55:42;12.25;;;6.10;;
73670;SDS011;61968;48.178;11.566;2023-09-12T10:58:25;6.85;;;5.30;;
73670;SDS011;61968;48.178;11.566;2023-09-12T11:03:49;6.18;;;5.22;;
73670;SDS011;61968;48.178;11.566;2023-09-12T11:06:22;6.65;;;5.20;;
73670;SDS011;61968;48.178;11.566;2023-09-12T11:11:45;7.70;;;5.72;;
73670;SDS011;61968;48.178;11.566;2023-09-12T11:14:13;6.88;;;6.07;;
73670;SDS011;61968;48.178;11.566;2023-09-12T11:16:40;8.90;;;6.63;;
73670;SDS011;61968;48.178;11.566;2023-09-12T11:19:14;9.50;;;7.10;;
73670;SDS011;61968;48.178;11.566;2023-09-12T11:21:40;9.55;;;7.07;;
73670;SDS011;61968;48.178;11.566;2023-09-12T11:24:08;12.98;;;7.18;;
73670;SDS011;61968;48.178;11.566;2023-09-12T11:26:36;6.57;;;5.90;;
73670;SDS011;61968;48.178;11.566;2023-09-12T11:29:19;7.88;;;7.00;;
73670;SDS011;61968;48.178;11.566;2023-09-12T11:31:51;9.32;;;5.40;;
73670;SDS011;61968;48.178;11.566;2023-09-12T11:34:22;7.88;;;5.43;;
73670;SDS011;61968;48.178;11.566;2023-09-12T11:36:50;8.13;;;5.80;;
73670;SDS011;61968;48.178;11.566;2023-09-12T11:39:24;8.98;;;6.20;;
73670;SDS011;61968;48.178;11.566;2023-09-12T11:41:53;10.93;;;5.63;;
73670;SDS011;61968;48.178;11.566;2023-09-12T11:44:21;8.35;;;5.55;;
73670;SDS011;61968;48.178;11.566;2023-09-12T11:46:48;8.68;;;5.57;;
73670;SDS011;61968;48.178;11.566;2023-09-12T11:49:15;7.85;;;5.65;;
73670;SDS011;61968;48.178;11.566;2023-09-12T11:51:46;7.80;;;6.88;;
73670;SDS011;61968;48.178;11.566;2023-09-12T11:54:14;6.68;;;5.97;;
73670;SDS011;61968;48.178;11.566;2023-09-12T11:56:41;8.07;;;5.90;;
73670;SDS011;61968;48.178;11.566;2023-09-12T11:59:09;8.88;;;6.40;;
73670;SDS011;61968;48.178;11.566;2023-09-12T12:01:35;7.15;;;6.45;;
73670;SDS011;61968;48.178;11.566;2023-09-12T12:04:02;7.93;;;5.93;;
73670;SDS011;61968;48.178;11.566;2023-09-12T12:06:31;15.30;;;8.68;;
73670;SDS011;61968;48.178;11.566;2023-09-12T12:09:00;15.15;;;10.23;;
73670;SDS011;61968;48.178;11.566;2023-09-12T12:11:29;16.15;;;11.00;;
73670;SDS011;61968;48.178;11.566;2023-09-12T12:13:56;11.98;;;7.60;;
73670;SDS011;61968;48.178;11.566;2023-09-12T12:16:28;9.32;;;7.65;;
73670;SDS011;61968;48.178;11.566;2023-09-12T12:18:54;24.15;;;16.65;;
73670;SDS011;61968;48.178;11.566;2023-09-12T12:21:22;18.02;;;12.40;;
73670;SDS011;61968;48.178;11.566;2023-09-12T12:23:57;9.85;;;8.30;;
73670;SDS011;61968;48.178;11.566;2023-09-12T12:26:24;8.52;;;7.18;;
73670;SDS011;61968;48.178;11.566;2023-09-12T12:28:50;8.05;;;6.40;;
73670;SDS011;61968;48.178;11.566;2023-09-12T12:31:18;7.65;;;5.72;;
73670;SDS011;61968;48.178;11.566;2023-09-12T12:33:48;6.10;;;5.50;;
73670;SDS011;61968;48.178;11.566;2023-09-12T12:36:15;8.82;;;6.30;;
73670;SDS011;61968;48.178;11.566;2023-09-12T12:38:42;6.53;;;5.72;;
73670;SDS011;61968;48.178;11.566;2023-09-12T12:41:12;8.00;;;5.93;;
73670;SDS011;61968;48.178;11.566;2023-09-12T12:43:39;7.78;;;5.57;;
73670;SDS011;61968;48.178;11.566;2023-09-12T12:46:09;6.38;;;5.03;;
73670;SDS011;61968;48.178;11.566;2023-09-12T12:48:37;9.63;;;8.27;;
73670;SDS011;61968;48.178;11.566;2023-09-12T12:51:15;7.95;;;6.60;;
73670;SDS011;61968;48.178;11.566;2023-09-12T12:53:43;13.25;;;7.43;;
73670;SDS011;61968;48.178;11.566;2023-09-12T12:56:12;7.88;;;5.90;;
73670;SDS011;61968;48.178;11.566;2023-09-12T12:58:44;16.48;;;8.60;;
73670;SDS011;61968;48.178;11.566;2023-09-12T13:03:38;9.38;;;5.93;;
73670;SDS011;61968;48.178;11.566;2023-09-12T13:06:06;13.32;;;6.03;;
73670;SDS011;61968;48.178;11.566;2023-09-12T13:11:06;9.70;;;6.20;;
73670;SDS011;61968;48.178;11.566;2023-09-12T13:13:33;6.03;;;5.47;;
73670;SDS011;61968;48.178;11.566;2023-09-12T13:16:00;10.50;;;5.88;;
73670;SDS011;61968;48.178;11.566;2023-09-12T13:18:26;6.50;;;5.90;;
73670;SDS011;61968;48.178;11.566;2023-09-12T13:20:53;9.60;;;6.03;;
73670;SDS011;61968;48.178;11.566;2023-09-12T13:23:20;9.88;;;6.82;;
73670;SDS011;61968;48.178;11.566;2023-09-12T13:25:47;9.43;;;6.00;;
73670;SDS011;61968;48.178;11.566;2023-09-12T13:28:14;10.73;;;7.68;;
73670;SDS011;61968;48.178;11.566;2023-09-12T13:30:40;11.00;;;5.78;;
73670;SDS011;61968;48.178;11.566;2023-09-12T13:33:07;7.82;;;6.20;;
73670;SDS011;61968;48.178;11.566;2023-09-12T13:35:33;7.05;;;6.03;;
73670;SDS011;61968;48.178;11.566;2023-09-12T13:38:00;6.53;;;5.93;;
73670;SDS011;61968;48.178;11.566;2023-09-12T13:40:28;9.15;;;5.40;;
73670;SDS011;61968;48.178;11.566;2023-09-12T13:42:56;6.78;;;6.18;;
73670;SDS011;61968;48.178;11.566;2023-09-12T13:45:23;7.95;;;6.65;;
73670;SDS011;61968;48.178;11.566;2023-09-12T13:47:49;7.72;;;6.85;;
73670;SDS011;61968;48.178;11.566;2023-09-12T13:50:16;6.53;;;5.93;;
73670;SDS011;61968;48.178;11.566;2023-09-12T13:52:42;8.60;;;5.93;;
73670;SDS011;61968;48.178;11.566;2023-09-12T13:55:09;6.53;;;5.88;;
73670;SDS011;61968;48.178;11.566;2023-09-12T13:57:38;6.18;;;5.57;;
73670;SDS011;61968;48.178;11.566;2023-09-12T14:00:10;7.90;;;6.30;;
73670;SDS011;61968;48.178;11.566;2023-09-12T14:02:36;11.13;;;6.55;;
73670;SDS011;61968;48.178;11.566;2023-09-12T14:05:03;8.60;;;6.10;;
73670;SDS011;61968;48.178;11.566;2023-09-12T14:07:30;7.30;;;5.90;;
73670;SDS011;61968;48.178;11.566;2023-09-12T14:09:56;6.75;;;6.05;;
73670;SDS011;61968;48.178;11.566;2023-09-12T14:12:23;7.70;;;6.30;;
73670;SDS011;61968;48.178;11.566;2023-09-12T14:14:51;11.80;;;6.38;;
73670;SDS011;61968;48.178;11.566;2023-09-12T14:17:19;8.55;;;6.60;;
73670;SDS011;61968;48.178;11.566;2023-09-12T14:19:45;8.05;;;5.45;;
73670;SDS011;61968;48.178;11.566;2023-09-12T14:22:12;10.55;;;5.78;;
73670;SDS011;61968;48.178;11.566;2023-09-12T14:24:38;8.77;;;6.15;;
73670;SDS011;61968;48.178;11.566;2023-09-12T14:27:05;7.28;;;6.22;;
73670;SDS011;61968;48.178;11.566;2023-09-12T14:29:32;6.20;;;5.60;;
73670;SDS011;61968;48.178;11.566;2023-09-12T14:31:58;19.40;;;13.80;;
73670;SDS011;61968;48.178;11.566;2023-09-12T14:34:26;9.40;;;7.72;;
73670;SDS011;61968;48.178;11.566;2023-09-12T14:36:54;12.73;;;6.45;;
73670;SDS011;61968;48.178;11.566;2023-09-12T14:39:21;6.38;;;5.88;;
73670;SDS011;61968;48.178;11.566;2023-09-12T14:41:48;12.43;;;6.28;;
73670;SDS011;61968;48.178;11.566;2023-09-12T14:44:17;14.85;;;6.40;;
73670;SDS011;61968;48.178;11.566;2023-09-12T14:46:43;7.93;;;6.20;;